Time;durP1;ratioP1;P1;durP2;ratioP2;P2;SDS_P1;SDS_P2;PMS_P1;PMS_P2;Temp;Humidity;BMP_temperature;BMP_pressure;BME280_temperature;BME280_humidity;BME280_pressure;Samples;Min_cycle;Max_cycle;Signal;HPM_P1;HPM_P2
2023/12/08 00:01:14;;;;;;;0.50;0.50;;;;;;;0.77;100.00;100621.63;5094112;28;20383;-50
2023/12/08 00:03:39;;;;;;;0.30;0.30;;;;;;;0.74;100.00;100617.22;5093898;28;20070;-49
2023/12/08 00:06:06;;;;;;;0.40;0.40;;;;;;;0.73;100.00;100596.84;5093604;28;20361;-50
2023/12/08 00:08:32;;;;;;;0.50;0.50;;;;;;;0.72;100.00;100605.22;5093658;28;20106;-48
2023/12/08 00:10:57;;;;;;;0.50;0.50;;;;;;;0.71;100.00;100611.06;5093756;28;20425;-50
2023/12/08 00:13:23;;;;;;;0.50;0.50;;;;;;;0.71;100.00;100606.00;5092887;28;20036;-49
2023/12/08 00:15:48;;;;;;;0.40;0.40;;;;;;;0.70;100.00;100602.59;5093796;28;20028;-51
2023/12/08 00:18:13;;;;;;;0.43;0.43;;;;;;;0.70;100.00;100601.69;5093643;28;20440;-47
2023/12/08 00:20:39;;;;;;;0.40;0.40;;;;;;;0.70;100.00;100599.16;5093083;28;20031;-50
2023/12/08 00:23:04;;;;;;;0.50;0.50;;;;;;;0.68;100.00;100596.53;5093526;28;20078;-46
2023/12/08 00:25:29;;;;;;;0.47;0.47;;;;;;;0.68;100.00;100595.66;5093320;28;20027;-49
2023/12/08 00:27:55;;;;;;;0.50;0.50;;;;;;;0.67;100.00;100596.44;5092976;28;20494;-50
2023/12/08 00:30:20;;;;;;;0.50;0.50;;;;;;;0.67;100.00;100596.44;5093000;28;20519;-48
2023/12/08 00:32:46;;;;;;;0.47;0.47;;;;;;;0.68;100.00;100599.06;5093580;28;20375;-47
2023/12/08 00:35:11;;;;;;;0.40;0.40;;;;;;;0.68;100.00;100590.59;5092537;28;20062;-48
2023/12/08 00:37:36;;;;;;;0.60;0.60;;;;;;;0.68;100.00;100586.38;5093201;28;20527;-51
2023/12/08 00:40:03;;;;;;;0.50;0.50;;;;;;;0.69;100.00;100587.28;5093496;28;20028;-50
2023/12/08 00:42:29;;;;;;;0.50;0.50;;;;;;;0.70;100.00;100578.88;5092362;28;20040;-49
2023/12/08 00:44:54;;;;;;;0.40;0.40;;;;;;;0.69;100.00;100572.06;5093143;28;20073;-50
2023/12/08 00:47:19;;;;;;;0.50;0.50;;;;;;;0.70;100.00;100573.78;5092856;28;20063;-50
2023/12/08 00:49:44;;;;;;;0.40;0.40;;;;;;;0.70;100.00;100576.34;5092904;28;20020;-49
2023/12/08 00:52:10;;;;;;;0.50;0.50;;;;;;;0.70;100.00;100578.88;5092897;28;20020;-47
2023/12/08 00:54:35;;;;;;;0.50;0.50;;;;;;;0.71;100.00;100579.00;5093267;28;20379;-50
2023/12/08 00:57:01;;;;;;;0.50;0.50;;;;;;;0.72;100.00;100582.41;5092554;28;20028;-46
2023/12/08 00:59:26;;;;;;;0.50;0.50;;;;;;;0.70;100.00;100574.69;5092773;28;20114;-50
2023/12/08 01:01:51;;;;;;;0.50;0.50;;;;;;;0.74;100.00;100570.69;5092964;28;20035;-46
2023/12/08 01:04:17;;;;;;;0.50;0.50;;;;;;;0.76;100.00;100564.06;5092572;28;20081;-51
2023/12/08 01:06:42;;;;;;;0.40;0.40;;;;;;;0.77;100.00;100565.81;5092913;28;20106;-50
2023/12/08 01:09:07;;;;;;;0.40;0.40;;;;;;;0.78;100.00;100567.59;5092669;28;20032;-50
2023/12/08 01:11:32;;;;;;;0.40;0.40;;;;;;;0.79;100.00;100564.28;5092706;28;20476;-50
2023/12/08 01:13:58;;;;;;;0.47;0.47;;;;;;;0.80;100.00;100563.47;5092573;28;20027;-51
2023/12/08 01:16:23;;;;;;;0.50;0.50;;;;;;;0.82;100.00;100554.31;5092191;28;20039;-49
2023/12/08 01:18:48;;;;;;;0.40;0.40;;;;;;;0.83;100.00;100551.00;5092938;28;20077;-51
2023/12/08 01:21:13;;;;;;;0.50;0.50;;;;;;;0.84;100.00;100552.75;5092676;28;20043;-49
2023/12/08 01:23:39;;;;;;;0.40;0.40;;;;;;;0.84;100.00;100552.75;5092230;28;20059;-47
2023/12/08 01:26:08;;;;;;;0.50;0.50;;;;;;;0.85;100.00;100546.00;5092496;28;20371;-49
2023/12/08 01:28:34;;;;;;;0.40;0.40;;;;;;;0.86;100.00;100552.84;5092298;28;20110;-49
2023/12/08 01:30:59;;;;;;;0.40;0.40;;;;;;;0.85;100.00;100549.41;5092391;28;20096;-49
2023/12/08 01:33:25;;;;;;;0.50;0.50;;;;;;;0.90;100.00;100549.72;5092272;28;20356;-49
2023/12/08 01:35:50;;;;;;;0.50;0.50;;;;;;;0.90;100.00;100535.34;5092738;28;20383;-49
2023/12/08 01:38:15;;;;;;;0.50;0.50;;;;;;;0.91;100.00;100534.59;5091862;28;20036;-49
2023/12/08 01:40:41;;;;;;;0.40;0.40;;;;;;;0.93;100.00;100538.13;5092734;28;20074;-51
2023/12/08 01:43:11;;;;;;;0.45;0.45;;;;;;;0.93;100.00;100527.97;5096773;28;20479;-50
2023/12/08 01:45:37;;;;;;;0.50;0.50;;;;;;;0.93;100.00;100525.44;5096209;28;20094;-47
2023/12/08 01:48:03;;;;;;;0.50;0.50;;;;;;;0.94;100.00;100534.81;5096629;28;20040;-51
2023/12/08 01:50:29;;;;;;;0.50;0.50;;;;;;;0.92;100.00;100531.28;5096162;28;20484;-51
2023/12/08 01:52:54;;;;;;;0.40;0.40;;;;;;;0.90;100.00;100517.59;5095963;28;20111;-51
2023/12/08 01:55:19;;;;;;;0.50;0.50;;;;;;;0.90;100.00;100517.59;5095917;28;20063;-49
2023/12/08 01:57:45;;;;;;;0.43;0.43;;;;;;;0.89;100.00;100517.50;5096615;28;20024;-52
2023/12/08 02:00:11;;;;;;;0.40;0.40;;;;;;;0.88;100.00;100516.66;5095839;28;20028;-47
2023/12/08 02:02:36;;;;;;;0.40;0.40;;;;;;;0.87;100.00;100512.34;5096356;28;20115;-47
2023/12/08 02:05:02;;;;;;;0.52;0.52;;;;;;;0.85;100.00;100511.34;5096284;28;20150;-46
2023/12/08 02:07:28;;;;;;;0.50;0.50;;;;;;;0.86;100.00;100522.41;5095494;28;20384;-51
2023/12/08 02:09:53;;;;;;;0.50;0.50;;;;;;;0.86;100.00;100509.72;5095865;28;20023;-50
2023/12/08 02:12:19;;;;;;;0.45;0.45;;;;;;;0.84;100.00;100501.13;5095616;28;20111;-48
2023/12/08 02:14:50;;;;;;;0.50;0.50;;;;;;;0.84;100.00;100507.09;5096111;28;20028;-50
2023/12/08 02:17:26;;;;;;;0.47;0.47;;;;;;;0.82;100.00;100496.81;5095652;28;20066;-51
2023/12/08 02:19:52;;;;;;;0.40;0.40;;;;;;;0.82;100.00;100483.28;5095607;28;20467;-47
2023/12/08 02:22:22;;;;;;;0.45;0.45;;;;;;;0.80;100.00;100484.81;5095475;28;20060;-46
2023/12/08 02:24:47;;;;;;;0.40;0.40;;;;;;;0.79;100.00;100476.34;5096092;28;20051;-51
2023/12/08 02:27:13;;;;;;;0.47;0.47;;;;;;;0.79;100.00;100478.88;5095301;28;20063;-51
2023/12/08 02:29:38;;;;;;;0.50;0.50;;;;;;;0.79;100.00;100471.28;5095824;28;20022;-49
2023/12/08 02:32:28;;;;;;;0.50;0.50;;;;;;;0.80;100.00;100460.34;5095908;28;20027;-49
2023/12/08 02:34:57;;;;;;;0.50;0.50;;;;;;;0.76;100.00;100470.19;5095266;28;20028;-49
2023/12/08 02:37:25;;;;;;;0.50;0.50;;;;;;;0.74;100.00;100464.16;5095501;28;20073;-49
2023/12/08 02:39:53;;;;;;;0.50;0.50;;;;;;;0.75;100.00;100476.03;5095864;28;20138;-50
2023/12/08 02:42:19;;;;;;;0.40;0.40;;;;;;;0.74;100.00;100474.31;5094870;28;20073;-49
2023/12/08 02:44:44;;;;;;;0.50;0.50;;;;;;;0.73;100.00;100467.47;5095453;28;20431;-51
2023/12/08 02:47:10;;;;;;;0.50;0.50;;;;;;;0.72;100.00;100464.03;5095111;28;20495;-47
2023/12/08 02:49:35;;;;;;;0.50;0.50;;;;;;;0.71;100.00;100471.56;5109221;28;20035;-50
2023/12/08 02:52:01;;;;;;;0.52;0.52;;;;;;;0.70;100.00;100467.28;5115487;28;20024;-50
2023/12/08 02:54:26;;;;;;;0.50;0.50;;;;;;;0.69;100.00;100463.88;5115169;28;20036;-49
2023/12/08 02:56:51;;;;;;;0.40;0.40;;;;;;;0.70;100.00;100459.66;5115920;28;20054;-51
2023/12/08 02:59:16;;;;;;;0.40;0.40;;;;;;;0.69;100.00;100455.38;5115395;28;20098;-51
2023/12/08 03:01:42;;;;;;;0.50;0.50;;;;;;;0.67;100.00;100470.50;5115083;28;20023;-49
2023/12/08 03:04:07;;;;;;;0.50;0.50;;;;;;;0.68;100.00;100473.91;5115268;28;20030;-50
2023/12/08 03:06:32;;;;;;;0.50;0.50;;;;;;;0.67;100.00;100470.50;5115471;28;20034;-49
2023/12/08 03:08:58;;;;;;;0.50;0.50;;;;;;;0.67;100.00;100472.16;5115168;28;20065;-49
2023/12/08 03:11:23;;;;;;;0.50;0.50;;;;;;;0.67;100.00;100473.03;5115119;28;20026;-51
2023/12/08 03:13:48;;;;;;;0.50;0.50;;;;;;;0.66;100.00;100476.38;5115430;28;20031;-50
2023/12/08 03:16:14;;;;;;;0.50;0.50;;;;;;;0.66;100.00;100476.38;5114640;28;20023;-51
2023/12/08 03:18:39;;;;;;;0.40;0.40;;;;;;;0.64;100.00;100463.56;5114984;28;20027;-50
2023/12/08 03:21:04;;;;;;;0.50;0.50;;;;;;;0.66;100.00;100466.22;5115524;28;20023;-51
2023/12/08 03:23:30;;;;;;;0.40;0.40;;;;;;;0.65;100.00;100470.41;5114515;28;20032;-50
2023/12/08 03:25:55;;;;;;;0.50;0.50;;;;;;;0.64;100.00;100465.22;5115103;28;20024;-49
2023/12/08 03:28:20;;;;;;;0.50;0.50;;;;;;;0.64;100.00;100473.72;5114906;28;20016;-50
2023/12/08 03:30:45;;;;;;;0.50;0.50;;;;;;;0.65;100.00;100472.06;5114561;28;20020;-49
2023/12/08 03:33:11;;;;;;;0.60;0.60;;;;;;;0.64;100.00;100467.78;5114590;28;20016;-50
2023/12/08 03:35:36;;;;;;;0.40;0.40;;;;;;;0.65;100.00;100460.25;5115090;28;20134;-48
2023/12/08 03:38:01;;;;;;;0.50;0.50;;;;;;;0.65;100.00;100456.84;5114605;28;20020;-49
2023/12/08 03:40:26;;;;;;;0.50;0.50;;;;;;;0.64;100.00;100447.47;5114487;28;20374;-49
2023/12/08 03:42:52;;;;;;;0.50;0.50;;;;;;;0.65;100.00;100450.09;5114917;28;20088;-50
2023/12/08 03:45:17;;;;;;;0.50;0.50;;;;;;;0.65;100.00;100454.31;5114014;28;20046;-49
2023/12/08 03:47:42;;;;;;;0.50;0.50;;;;;;;0.64;100.00;100452.56;5114371;28;20047;-50
2023/12/08 03:50:08;;;;;;;0.60;0.60;;;;;;;0.63;100.00;100455.88;5114647;28;20047;-51
2023/12/08 03:52:33;;;;;;;0.43;0.43;;;;;;;0.63;100.00;100446.63;5113654;28;20084;-51
2023/12/08 03:54:59;;;;;;;0.40;0.40;;;;;;;0.63;100.00;100441.53;5114681;28;20027;-49
2023/12/08 03:57:24;;;;;;;0.40;0.40;;;;;;;0.64;100.00;100438.19;5114421;28;20084;-50
2023/12/08 03:59:49;;;;;;;0.40;0.40;;;;;;;0.64;100.00;100440.72;5114067;28;20106;-47
2023/12/08 04:02:14;;;;;;;0.50;0.50;;;;;;;0.63;100.00;100441.53;5114121;28;20031;-48
2023/12/08 04:04:41;;;;;;;0.50;0.50;;;;;;;0.64;100.00;100439.88;5113633;28;20030;-48
2023/12/08 04:07:07;;;;;;;0.47;0.47;;;;;;;0.63;100.00;100421.25;5114476;28;20409;-52
2023/12/08 04:09:32;;;;;;;0.50;0.50;;;;;;;0.62;100.00;100427.09;5113968;28;20502;-47
2023/12/08 04:11:57;;;;;;;0.40;0.40;;;;;;;0.62;100.00;100427.09;5113840;28;20024;-51
2023/12/08 04:14:23;;;;;;;0.50;0.50;;;;;;;0.63;100.00;100425.44;5113793;28;20034;-51
2023/12/08 04:16:51;;;;;;;0.50;0.50;;;;;;;0.61;100.00;100432.09;5114168;28;20031;-49
2023/12/08 04:19:18;;;;;;;0.50;0.50;;;;;;;0.62;100.00;100433.81;5101627;28;20028;-50
2023/12/08 04:21:44;;;;;;;0.50;0.50;;;;;;;0.61;100.00;100422.81;5093614;28;20034;-50
2023/12/08 04:24:09;;;;;;;0.50;0.50;;;;;;;0.62;100.00;100419.50;5093768;28;20040;-48
2023/12/08 04:26:34;;;;;;;0.50;0.50;;;;;;;0.61;100.00;100397.44;5093266;28;20020;-50
2023/12/08 04:29:00;;;;;;;0.30;0.30;;;;;;;0.62;100.00;100403.38;5093465;28;20426;-51
2023/12/08 04:31:25;;;;;;;0.50;0.50;;;;;;;0.64;100.00;100437.34;5093288;28;20026;-48
2023/12/08 04:33:51;;;;;;;0.45;0.45;;;;;;;0.63;100.00;100425.44;5092859;28;20392;-50
2023/12/08 04:36:16;;;;;;;0.40;0.40;;;;;;;0.62;100.00;100423.66;5093712;28;20032;-51
2023/12/08 04:38:41;;;;;;;0.40;0.40;;;;;;;0.64;100.00;100433.13;5093588;28;20020;-46
2023/12/08 04:41:07;;;;;;;0.50;0.50;;;;;;;0.66;100.00;100435.78;5092773;28;20488;-51
2023/12/08 04:43:32;;;;;;;0.50;0.50;;;;;;;0.65;100.00;100429.81;5092804;28;20065;-51
2023/12/08 04:45:58;;;;;;;0.50;0.50;;;;;;;0.67;100.00;100422.28;5093193;28;20032;-49
2023/12/08 04:48:23;;;;;;;0.50;0.50;;;;;;;0.67;100.00;100411.28;5092478;28;20028;-51
2023/12/08 04:50:51;;;;;;;0.50;0.50;;;;;;;0.68;100.00;100424.06;5093263;28;20020;-51
2023/12/08 04:53:17;;;;;;;0.60;0.60;;;;;;;0.70;100.00;100434.28;5093082;28;20023;-50
2023/12/08 04:55:42;;;;;;;0.50;0.50;;;;;;;0.71;100.00;100428.44;5092567;28;20036;-49
2023/12/08 04:58:07;;;;;;;0.50;0.50;;;;;;;0.72;100.00;100420.94;5092878;28;20020;-49
2023/12/08 05:00:33;;;;;;;0.50;0.50;;;;;;;0.74;100.00;100415.97;5092812;28;20024;-48
2023/12/08 05:02:58;;;;;;;0.45;0.45;;;;;;;0.75;100.00;100411.00;5092463;28;20032;-48
2023/12/08 05:05:24;;;;;;;0.50;0.50;;;;;;;0.76;100.00;100411.84;5092571;28;20078;-47
2023/12/08 05:07:50;;;;;;;0.40;0.40;;;;;;;0.78;100.00;100420.44;5093179;28;20027;-46
2023/12/08 05:10:16;;;;;;;0.38;0.38;;;;;;;0.78;100.00;100413.69;5092186;28;20016;-50
2023/12/08 05:12:41;;;;;;;0.40;0.40;;;;;;;0.79;100.00;100418.00;5092920;28;20040;-51
2023/12/08 05:15:07;;;;;;;0.40;0.40;;;;;;;0.79;100.00;100412.94;5092055;28;20495;-50
2023/12/08 05:17:32;;;;;;;0.50;0.50;;;;;;;0.81;100.00;100402.88;5092268;28;20028;-51
2023/12/08 05:19:57;;;;;;;0.50;0.50;;;;;;;0.83;100.00;100401.31;5093091;28;20051;-48
2023/12/08 05:22:23;;;;;;;0.40;0.40;;;;;;;0.85;100.00;100409.00;5092159;28;20024;-50
2023/12/08 05:24:48;;;;;;;0.40;0.40;;;;;;;0.85;100.00;100397.19;5092906;28;20090;-51
2023/12/08 05:27:13;;;;;;;0.50;0.50;;;;;;;0.88;100.00;100402.47;5092727;28;20360;-49
2023/12/08 05:29:38;;;;;;;0.40;0.40;;;;;;;0.90;100.00;100405.97;5092493;28;20031;-50
2023/12/08 05:32:04;;;;;;;0.50;0.50;;;;;;;0.91;100.00;100406.84;5092703;28;20490;-48
2023/12/08 05:34:29;;;;;;;0.40;0.40;;;;;;;0.92;100.00;100404.41;5092693;28;20078;-49
2023/12/08 05:36:55;;;;;;;0.50;0.50;;;;;;;0.94;100.00;100413.00;5092529;28;20065;-50
2023/12/08 05:39:20;;;;;;;0.40;0.40;;;;;;;0.96;100.00;100421.56;5092329;28;20117;-51
2023/12/08 05:41:46;;;;;;;0.50;0.50;;;;;;;0.97;100.00;100423.31;5092965;28;20078;-51
2023/12/08 05:44:11;;;;;;;0.50;0.50;;;;;;;0.98;100.00;100424.19;5091888;28;20475;-49
2023/12/08 05:46:36;;;;;;;0.50;0.50;;;;;;;1.00;100.00;100424.31;5092271;28;20048;-50
2023/12/08 05:49:02;;;;;;;0.40;0.40;;;;;;;1.00;100.00;100422.63;5092659;28;20464;-50
2023/12/08 05:51:27;;;;;;;0.50;0.50;;;;;;;1.02;100.00;100426.16;5091969;28;20024;-49
2023/12/08 05:53:53;;;;;;;0.45;0.45;;;;;;;1.04;100.00;100426.25;5092563;28;20401;-48
2023/12/08 05:56:18;;;;;;;0.50;0.50;;;;;;;1.07;100.00;100423.88;5092227;28;20016;-50
2023/12/08 05:58:43;;;;;;;0.50;0.50;;;;;;;1.09;100.00;100427.41;5092104;28;20103;-50
2023/12/08 06:01:12;;;;;;;0.50;0.50;;;;;;;1.10;100.00;100429.16;5092344;28;20028;-50
2023/12/08 06:03:37;;;;;;;0.50;0.50;;;;;;;1.12;100.00;100428.47;5092718;28;20024;-47
2023/12/08 06:06:02;;;;;;;0.40;0.40;;;;;;;1.14;100.00;100424.34;5091991;28;20044;-51
2023/12/08 06:08:28;;;;;;;0.30;0.30;;;;;;;1.18;100.00;100422.03;5092106;28;20475;-49
2023/12/08 06:10:53;;;;;;;0.50;0.50;;;;;;;1.19;100.00;100408.50;5092435;28;20519;-50
2023/12/08 06:13:18;;;;;;;0.57;0.57;;;;;;;1.22;100.00;100404.50;5091677;28;20024;-50
2023/12/08 06:15:43;;;;;;;0.40;0.40;;;;;;;1.24;100.00;100407.13;5092250;28;20539;-49
2023/12/08 06:18:09;;;;;;;0.40;0.40;;;;;;;1.26;100.00;100426.75;5092298;28;20050;-49
2023/12/08 06:20:35;;;;;;;0.50;0.50;;;;;;;1.26;100.00;100414.06;5091757;28;20020;-51
2023/12/08 06:23:01;;;;;;;0.47;0.47;;;;;;;1.31;100.00;100429.56;5092407;28;20069;-51
2023/12/08 06:25:27;;;;;;;0.50;0.50;;;;;;;1.34;100.00;100433.97;5091575;28;20514;-49
2023/12/08 06:27:53;;;;;;;0.40;0.40;;;;;;;1.37;100.00;100432.50;5094294;28;20100;-50
2023/12/08 06:30:18;;;;;;;0.45;0.45;;;;;;;1.40;100.00;100445.34;5095633;28;20102;-51
2023/12/08 06:32:44;;;;;;;0.40;0.40;;;;;;;1.42;100.00;100437.81;5095601;28;20103;-51
2023/12/08 06:35:09;;;;;;;0.40;0.40;;;;;;;1.44;100.00;100426.97;5095326;28;20040;-47
2023/12/08 06:37:35;;;;;;;0.50;0.50;;;;;;;1.48;100.00;100433.13;5095892;28;20455;-51
2023/12/08 06:40:00;;;;;;;0.47;0.47;;;;;;;1.52;100.00;100435.03;5095277;28;20074;-49
2023/12/08 06:42:25;;;;;;;0.50;0.50;;;;;;;1.56;100.00;100431.91;5095173;28;20044;-50
2023/12/08 06:44:50;;;;;;;0.43;0.43;;;;;;;1.59;100.00;100437.16;5095634;28;20376;-51
2023/12/08 06:47:16;;;;;;;0.50;0.50;;;;;;;1.59;100.00;100442.25;5094608;28;20052;-50
2023/12/08 06:49:41;;;;;;;0.40;0.40;;;;;;;1.62;100.00;100444.97;5095553;28;20047;-46
2023/12/08 06:52:06;;;;;;;0.50;0.50;;;;;;;1.64;100.00;100443.41;5095846;28;20030;-51
2023/12/08 06:54:32;;;;;;;0.40;0.40;;;;;;;1.67;100.00;100452.00;5094644;28;20759;-50
2023/12/08 06:56:57;;;;;;;0.30;0.30;;;;;;;1.68;100.00;100446.09;5095155;28;20081;-48
2023/12/08 06:59:22;;;;;;;0.40;0.40;;;;;;;1.70;100.00;100444.53;5095195;28;20024;-49
2023/12/08 07:01:47;;;;;;;0.43;0.43;;;;;;;1.72;100.00;100440.44;5094914;28;20118;-51
2023/12/08 07:04:14;;;;;;;0.32;0.32;;;;;;;1.75;100.00;100456.72;5094769;28;20028;-49
2023/12/08 07:06:39;;;;;;;0.40;0.40;;;;;;;1.76;100.00;100455.06;5095443;28;20031;-50
2023/12/08 07:09:05;;;;;;;0.40;0.40;;;;;;;1.78;100.00;100448.41;5094785;28;20020;-49
2023/12/08 07:11:30;;;;;;;0.40;0.40;;;;;;;1.80;100.00;100451.91;5094771;28;20054;-50
2023/12/08 07:13:55;;;;;;;0.43;0.43;;;;;;;1.81;100.00;100448.59;5095167;28;20062;-49
2023/12/08 07:16:21;;;;;;;0.40;0.40;;;;;;;1.83;100.00;100447.00;5094149;28;20394;-50
2023/12/08 07:18:46;;;;;;;0.50;0.50;;;;;;;1.83;100.00;100441.91;5095076;28;20028;-50
2023/12/08 07:21:12;;;;;;;0.50;0.50;;;;;;;1.85;100.00;100442.91;5094843;28;20020;-48
2023/12/08 07:23:37;;;;;;;0.50;0.50;;;;;;;1.86;100.00;100452.28;5094628;28;20032;-51
2023/12/08 07:26:04;;;;;;;0.40;0.40;;;;;;;1.87;100.00;100454.00;5094767;28;20081;-51
2023/12/08 07:28:29;;;;;;;0.40;0.40;;;;;;;1.89;100.00;100457.53;5094606;28;20383;-48
2023/12/08 07:30:55;;;;;;;0.40;0.40;;;;;;;1.90;100.00;100454.22;5093963;28;20273;-49
2023/12/08 07:33:21;;;;;;;0.40;0.40;;;;;;;1.93;100.00;100461.13;5094388;28;20074;-50
2023/12/08 07:35:46;;;;;;;0.30;0.30;;;;;;;1.94;100.00;100466.31;5094331;28;20020;-49
2023/12/08 07:38:11;;;;;;;0.40;0.40;;;;;;;1.95;100.00;100472.25;5093491;28;20379;-49
2023/12/08 07:40:37;;;;;;;0.50;0.50;;;;;;;1.96;100.00;100469.81;5094299;28;20031;-51
2023/12/08 07:43:02;;;;;;;0.50;0.50;;;;;;;1.98;100.00;100472.44;5093984;28;20086;-51
2023/12/08 07:45:28;;;;;;;0.40;0.40;;;;;;;2.00;100.00;100480.16;5093980;28;20031;-48
2023/12/08 07:47:53;;;;;;;0.40;0.40;;;;;;;2.00;100.00;100475.06;5094311;28;20037;-51
2023/12/08 07:50:19;;;;;;;0.40;0.40;;;;;;;2.01;100.00;100474.28;5093549;28;20020;-48
2023/12/08 07:52:44;;;;;;;0.40;0.40;;;;;;;2.02;100.00;100474.38;5094234;28;20149;-47
2023/12/08 07:55:09;;;;;;;0.50;0.50;;;;;;;2.04;100.00;100484.63;5094109;28;20384;-48
2023/12/08 07:57:35;;;;;;;0.40;0.40;;;;;;;2.05;100.00;100484.69;5093785;28;20384;-49
2023/12/08 08:00:00;;;;;;;0.40;0.40;;;;;;;2.06;100.00;100483.06;5093848;28;20380;-48
2023/12/08 08:02:26;;;;;;;0.50;0.50;;;;;;;2.09;100.00;100485.75;5094040;28;20031;-48
2023/12/08 08:04:51;;;;;;;0.40;0.40;;;;;;;2.11;100.00;100489.28;5093463;28;20483;-50
2023/12/08 08:07:16;;;;;;;0.38;0.38;;;;;;;2.12;100.00;100488.50;5093657;28;20028;-48
2023/12/08 08:09:42;;;;;;;0.50;0.50;;;;;;;2.16;100.00;100487.00;5094076;28;20063;-49
2023/12/08 08:12:07;;;;;;;0.40;0.40;;;;;;;2.17;100.00;100492.19;5093616;28;20020;-46
2023/12/08 08:14:32;;;;;;;0.32;0.32;;;;;;;2.21;100.00;100490.66;5093319;28;20082;-51
2023/12/08 08:16:58;;;;;;;0.40;0.40;;;;;;;2.24;100.00;100485.78;5094167;28;20020;-50
2023/12/08 08:19:23;;;;;;;0.40;0.40;;;;;;;2.27;100.00;100491.03;5093238;28;20032;-46
2023/12/08 08:21:48;;;;;;;0.30;0.30;;;;;;;2.30;100.00;100492.09;5093544;28;20032;-46
2023/12/08 08:24:14;;;;;;;0.45;0.45;;;;;;;2.33;100.00;100493.06;5093433;28;20506;-46
2023/12/08 08:26:43;;;;;;;0.40;0.40;;;;;;;2.35;100.00;100489.81;5093042;28;20041;-47
2023/12/08 08:29:08;;;;;;;0.47;0.47;;;;;;;2.37;100.00;100488.22;5093273;28;20383;-45
2023/12/08 08:31:33;;;;;;;0.40;0.40;;;;;;;2.41;100.00;100494.38;5093240;28;20028;-45
2023/12/08 08:33:59;;;;;;;0.50;0.50;;;;;;;2.44;100.00;100491.97;5093031;28;20032;-47
2023/12/08 08:36:25;;;;;;;0.30;0.30;;;;;;;2.46;100.00;100495.50;5093285;28;20024;-46
2023/12/08 08:38:51;;;;;;;0.40;0.40;;;;;;;2.49;100.00;100498.22;5093490;28;20476;-46
2023/12/08 08:41:17;;;;;;;0.40;0.40;;;;;;;2.54;100.00;100501.88;5092465;28;20058;-46
2023/12/08 08:43:42;;;;;;;0.50;0.50;;;;;;;2.57;100.00;100506.28;5093408;28;20024;-46
2023/12/08 08:46:07;;;;;;;0.40;0.40;;;;;;;2.60;100.00;100511.56;5092692;28;20504;-45
2023/12/08 08:48:32;;;;;;;0.38;0.38;;;;;;;2.64;100.00;100509.25;5093002;28;20039;-46
2023/12/08 08:50:58;;;;;;;0.43;0.43;;;;;;;2.69;100.00;100516.28;5093335;28;20056;-48
2023/12/08 08:53:23;;;;;;;0.40;0.40;;;;;;;2.71;100.00;100507.94;5092394;28;20020;-48
2023/12/08 08:55:48;;;;;;;0.50;0.50;;;;;;;2.75;100.00;100516.59;5092916;28;20480;-49
2023/12/08 08:58:14;;;;;;;0.40;0.40;;;;;;;2.79;100.00;100519.41;5092664;28;20103;-45
2023/12/08 09:00:39;;;;;;;0.40;0.40;;;;;;;2.84;100.00;100512.06;5093052;28;20020;-45
2023/12/08 09:03:06;;;;;;;0.50;0.50;;;;;;;2.87;100.00;100517.28;5092802;28;20372;-50
2023/12/08 09:05:34;;;;;;;0.40;0.40;;;;;;;2.92;100.00;100520.09;5092715;28;20391;-50
2023/12/08 09:07:59;;;;;;;0.40;0.40;;;;;;;2.94;100.00;100519.41;5092627;28;20024;-47
2023/12/08 09:10:24;;;;;;;0.47;0.47;;;;;;;2.99;100.00;100518.78;5092495;28;20035;-50
2023/12/08 09:12:50;;;;;;;0.50;0.50;;;;;;;3.03;100.00;100528.31;5092903;28;20471;-47
2023/12/08 09:15:15;;;;;;;0.40;0.40;;;;;;;3.06;100.00;100531.91;5092354;28;20028;-50
2023/12/08 09:17:41;;;;;;;0.30;0.30;;;;;;;3.08;100.00;100529.44;5092836;28;20460;-50
2023/12/08 09:20:08;;;;;;;0.40;0.40;;;;;;;3.13;100.00;100536.53;5093162;28;20482;-49
2023/12/08 09:22:35;;;;;;;0.50;0.50;;;;;;;3.17;100.00;100527.41;5092060;28;20024;-49
2023/12/08 09:25:01;;;;;;;0.40;0.40;;;;;;;3.20;100.00;100535.22;5092737;28;20020;-51
2023/12/08 09:27:26;;;;;;;0.40;0.40;;;;;;;3.27;100.00;100537.28;5092748;28;20074;-46
2023/12/08 09:29:52;;;;;;;0.40;0.40;;;;;;;3.29;100.00;100525.53;5092508;28;20028;-46
2023/12/08 09:32:17;;;;;;;0.40;0.40;;;;;;;3.35;100.00;100536.84;5092494;28;20016;-47
2023/12/08 09:34:42;;;;;;;0.50;0.50;;;;;;;3.40;100.00;100540.50;5092922;28;20028;-50
2023/12/08 09:37:08;;;;;;;0.32;0.32;;;;;;;3.43;100.00;100536.47;5092079;28;20499;-46
2023/12/08 09:39:33;;;;;;;0.30;0.30;;;;;;;3.49;100.00;100546.09;5092577;28;20111;-50
2023/12/08 09:42:02;;;;;;;0.40;0.40;;;;;;;3.56;100.00;100543.06;5092576;28;20460;-46
2023/12/08 09:44:28;;;;;;;0.30;0.30;;;;;;;3.62;100.00;100548.47;5091669;28;20059;-46
2023/12/08 09:46:55;;;;;;;0.40;0.40;;;;;;;3.68;100.00;100549.59;5092656;28;20396;-50
2023/12/08 09:49:30;;;;;;;0.47;0.47;;;;;;;3.72;100.00;100546.41;5091934;28;20107;-46
2023/12/08 09:51:57;;;;;;;0.40;0.40;;;;;;;3.78;100.00;100544.19;5092515;28;20266;-47
2023/12/08 09:54:23;;;;;;;0.40;0.40;;;;;;;3.84;100.00;100538.56;5092416;28;20073;-47
2023/12/08 09:56:52;;;;;;;0.40;0.40;;;;;;;3.88;100.00;100543.88;5092246;28;20127;-50
2023/12/08 09:59:22;;;;;;;0.30;0.30;;;;;;;3.93;100.00;100550.06;5092080;28;20475;-47
2023/12/08 10:01:48;;;;;;;0.40;0.40;;;;;;;3.98;100.00;100546.88;5093204;28;20032;-47
2023/12/08 10:04:13;;;;;;;0.40;0.40;;;;;;;4.06;100.00;100545.63;5095463;28;20055;-47
2023/12/08 10:06:38;;;;;;;0.40;0.40;;;;;;;4.11;100.00;100551.84;5096168;28;20392;-46
2023/12/08 10:09:04;;;;;;;0.40;0.40;;;;;;;4.15;100.00;100553.72;5096259;28;20028;-51
2023/12/08 10:11:30;;;;;;;0.40;0.40;;;;;;;4.22;100.00;100548.16;5095641;28;20051;-47
2023/12/08 10:13:56;;;;;;;0.30;0.30;;;;;;;4.27;100.00;100554.38;5096189;28;20446;-49
2023/12/08 10:16:22;;;;;;;0.30;0.30;;;;;;;4.31;100.00;100557.06;5096035;28;20464;-48
2023/12/08 10:18:48;;;;;;;0.30;0.30;;;;;;;4.34;100.00;100550.44;5096014;28;20388;-46
2023/12/08 10:21:14;;;;;;;0.32;0.32;;;;;;;4.38;100.00;100544.69;5095594;28;20455;-46
2023/12/08 10:23:40;;;;;;;0.30;0.30;;;;;;;4.41;100.00;100555.03;5095975;28;20093;-50
2023/12/08 10:26:06;;;;;;;0.40;0.40;;;;;;;4.48;100.00;100551.13;5095435;28;20027;-46
2023/12/08 10:28:34;;;;;;;0.40;0.40;;;;;;;4.52;100.00;100553.03;5095903;28;20024;-49
2023/12/08 10:31:00;;;;;;;0.30;0.30;;;;;;;4.57;100.00;100556.69;5096022;28;20032;-47
2023/12/08 10:33:25;;;;;;;0.30;0.30;;;;;;;4.59;100.00;100554.19;5094753;28;20020;-51
2023/12/08 10:35:51;;;;;;;0.40;0.40;;;;;;;4.63;100.00;100562.88;5095852;28;20553;-46
2023/12/08 10:38:17;;;;;;;0.40;0.40;;;;;;;4.68;100.00;100553.78;5095505;28;20399;-51
2023/12/08 10:40:52;;;;;;;0.40;0.40;;;;;;;4.73;100.00;100562.53;5095134;28;20020;-50
2023/12/08 10:43:22;;;;;;;0.35;0.35;;;;;;;4.76;100.00;100562.69;5096009;28;20070;-50
2023/12/08 10:45:54;;;;;;;0.40;0.40;;;;;;;4.80;100.00;100548.38;5095083;28;20053;-47
2023/12/08 10:48:22;;;;;;;0.30;0.30;;;;;;;4.85;100.00;100557.13;5095168;28;20036;-46
2023/12/08 10:50:52;;;;;;;0.30;0.30;;;;;;;4.90;100.00;100561.66;5095508;28;20047;-46
2023/12/08 10:53:19;;;;;;;0.40;0.40;;;;;;;4.92;100.00;100560.06;5094655;28;20460;-50
2023/12/08 10:55:51;;;;;;;0.30;0.30;;;;;;;4.97;100.00;100567.06;5095175;28;20392;-52
2023/12/08 10:58:20;;;;;;;0.30;0.30;;;;;;;5.00;100.00;100562.13;5095392;28;20020;-49
2023/12/08 11:00:46;;;;;;;0.40;0.40;;;;;;;5.04;100.00;100558.91;5094800;28;20379;-46
2023/12/08 11:03:12;;;;;;;0.40;0.40;;;;;;;5.06;100.00;100554.72;5094938;28;20038;-50
2023/12/08 11:05:45;;;;;;;0.30;0.30;;;;;;;5.11;100.00;100560.91;5095268;28;20020;-48
2023/12/08 11:08:12;;;;;;;0.40;0.40;;;;;;;5.14;100.00;100561.09;5094643;28;20028;-50
2023/12/08 11:10:42;;;;;;;0.30;0.30;;;;;;;5.17;100.00;100560.34;5095379;28;20020;-46
2023/12/08 11:13:11;;;;;;;0.30;0.30;;;;;;;5.21;100.00;100564.78;5094269;28;20475;-46
2023/12/08 11:15:43;;;;;;;0.40;0.40;;;;;;;5.20;100.00;100561.38;5093824;28;20487;-47
2023/12/08 11:18:17;;;;;;;0.38;0.38;;;;;;;5.23;100.00;100560.66;5095201;28;20030;-49